Weather at Campo de Vuelo de Pozorrubio

Public forecast

Using degrees Celsius for public forecast. Weather courtesy of forecast.io.

Closest aviation weather report (METAR) to Campo de Vuelo de Pozorrubio

Closest report is Getafe Air Base, 45.2 nm (83.8 km) NW. Retrieved 2022/01/29 06:00 UTC (18 minutes ago):

LEGT 290600Z 04003KT CAVOK M01/M08 Q1033

Closest aviation forecast (TAF) to Campo de Vuelo de Pozorrubio

Closest forecast is Getafe Air Base, 45.2 nm (83.8 km) NW. Retrieved 2022/01/29 06:27 UTC (0 seconds ago):

TAF LEGT 290500Z 2906/3006 35005KT CAVOK TX16/2915Z TNM02/2907Z TEMPO 2910/2917 05006KT